Time;durP1;ratioP1;P1;durP2;ratioP2;P2;SDS_P1;SDS_P2;PMS_P1;PMS_P2;Temp;Humidity;BMP_temperature;BMP_pressure;BME280_temperature;BME280_humidity;BME280_pressure;Samples;Min_cycle;Max_cycle;Signal;HPM_P1;HPM_P2
2022/05/14 00:01:04;;;;;;;0.00;0.00;;;12.00;99.80;;;;;;5094661;28;20104;-78
2022/05/14 00:03:31;;;;;;;0.00;0.00;;;12.00;99.90;;;;;;5094643;28;20135;-77
2022/05/14 00:06:03;;;;;;;0.00;0.00;;;12.00;99.90;;;;;;5094577;28;20078;-78
2022/05/14 00:08:30;;;;;;;0.00;0.00;;;12.00;99.90;;;;;;5093570;28;20122;-77
2022/05/14 00:13:41;;;;;;;0.10;0.05;;;12.00;99.90;;;;;;5094537;28;20051;-77
2022/05/14 00:16:07;;;;;;;1.35;0.55;;;12.00;99.90;;;;;;5094013;28;20540;-78
2022/05/14 00:18:35;;;;;;;0.00;0.00;;;12.00;99.90;;;;;;5094443;28;20176;-78
2022/05/14 00:21:01;;;;;;;0.03;0.03;;;12.00;99.70;;;;;;5094154;28;20040;-77
2022/05/14 00:23:27;;;;;;;2.42;0.80;;;11.90;99.90;;;;;;5094011;28;20415;-78
2022/05/14 00:25:54;;;;;;;0.00;0.00;;;11.90;99.90;;;;;;5077098;28;20048;-78
2022/05/14 00:28:20;;;;;;;0.00;0.00;;;11.90;99.90;;;;;;5077181;28;20063;-78
2022/05/14 00:30:46;;;;;;;0.10;0.10;;;11.90;99.90;;;;;;5093771;28;20067;-78
2022/05/14 00:33:12;;;;;;;0.05;0.05;;;11.90;99.90;;;;;;5094154;28;20048;-78
2022/05/14 00:35:38;;;;;;;0.00;0.00;;;11.90;99.90;;;;;;5093822;28;20114;-78
2022/05/14 00:38:04;;;;;;;0.03;0.03;;;11.90;99.90;;;;;;5093894;28;20048;-78
2022/05/14 00:40:38;;;;;;;0.00;0.00;;;11.80;99.90;;;;;;5094215;28;20044;-78
2022/05/14 00:43:05;;;;;;;0.00;0.00;;;11.80;99.90;;;;;;5093675;28;20061;-78
2022/05/14 00:45:34;;;;;;;0.00;0.00;;;11.80;99.90;;;;;;5094233;28;20083;-78
2022/05/14 00:48:01;;;;;;;0.00;0.00;;;11.80;99.90;;;;;;5077123;28;20044;-78
2022/05/14 00:50:44;;;;;;;0.00;0.00;;;11.80;99.90;;;;;;5093598;28;20047;-78
2022/05/14 00:53:14;;;;;;;0.00;0.00;;;11.70;99.90;;;;;;5076841;28;20044;-78
2022/05/14 00:55:42;;;;;;;0.00;0.00;;;11.70;99.90;;;;;;5077094;28;20052;-78
2022/05/14 00:58:10;;;;;;;1.15;0.30;;;11.70;99.90;;;;;;5093617;28;20051;-78
2022/05/14 01:00:37;;;;;;;0.00;0.00;;;11.70;99.90;;;;;;5077053;28;20433;-78
2022/05/14 01:03:03;;;;;;;0.00;0.00;;;11.70;99.90;;;;;;5093376;28;20051;-78
2022/05/14 01:05:29;;;;;;;0.00;0.00;;;11.60;99.90;;;;;;5093448;28;20143;-78
2022/05/14 01:07:56;;;;;;;0.00;0.00;;;11.70;99.90;;;;;;5093543;28;20048;-78
2022/05/14 01:10:26;;;;;;;0.70;0.45;;;11.70;99.90;;;;;;5093812;28;20446;-78
2022/05/14 01:12:57;;;;;;;0.00;0.00;;;11.70;99.90;;;;;;5093404;28;20048;-78
2022/05/14 01:15:36;;;;;;;0.00;0.00;;;11.70;99.90;;;;;;5075931;28;20063;-78
2022/05/14 01:18:01;;;;;;;0.20;0.10;;;11.70;99.90;;;;;;5076398;28;20105;-78
2022/05/14 01:20:27;;;;;;;0.00;0.00;;;11.80;99.90;;;;;;5093216;28;20052;-78
2022/05/14 01:23:06;;;;;;;2.45;0.43;;;11.80;99.90;;;;;;5093576;28;20470;-78
2022/05/14 01:28:38;;;;;;;0.00;0.00;;;11.80;99.90;;;;;;5093321;28;20392;-78
2022/05/14 01:31:05;;;;;;;4.53;1.08;;;11.80;99.90;;;;;;5093233;28;20043;-78
2022/05/14 01:33:33;;;;;;;0.00;0.00;;;11.80;99.90;;;;;;5093325;28;20059;-78
2022/05/14 01:35:58;;;;;;;0.00;0.00;;;11.80;99.90;;;;;;5093219;28;20047;-78
2022/05/14 01:38:24;;;;;;;0.00;0.00;;;11.80;99.90;;;;;;5092930;28;20036;-78
2022/05/14 01:40:51;;;;;;;0.00;0.00;;;11.80;99.90;;;;;;5075919;28;20388;-78
2022/05/14 01:43:17;;;;;;;0.00;0.00;;;11.80;99.90;;;;;;5075991;28;20484;-78
2022/05/14 01:45:43;;;;;;;0.00;0.00;;;11.80;99.90;;;;;;5092902;28;20036;-78
2022/05/14 01:48:09;;;;;;;0.03;0.03;;;11.80;99.90;;;;;;5092846;28;20048;-78
2022/05/14 01:50:35;;;;;;;0.00;0.00;;;11.80;99.90;;;;;;5092558;28;20032;-78
2022/05/14 01:53:01;;;;;;;0.00;0.00;;;11.80;99.90;;;;;;5092702;28;20040;-78
2022/05/14 01:55:26;;;;;;;1.85;0.63;;;11.80;99.90;;;;;;5076231;28;20468;-78
2022/05/14 01:57:52;;;;;;;0.00;0.00;;;11.80;99.90;;;;;;5092852;28;20040;-78
2022/05/14 02:00:21;;;;;;;1.98;0.52;;;11.80;99.90;;;;;;5092860;28;20070;-78
2022/05/14 02:02:47;;;;;;;0.00;0.00;;;11.80;99.90;;;;;;5075835;28;20056;-78
2022/05/14 02:05:14;;;;;;;0.00;0.00;;;11.80;99.90;;;;;;5076102;28;20044;-78
2022/05/14 02:07:40;;;;;;;0.00;0.00;;;11.70;99.90;;;;;;5092471;28;20048;-78
2022/05/14 02:10:06;;;;;;;0.00;0.00;;;11.70;99.90;;;;;;5092989;28;20123;-78
2022/05/14 02:12:31;;;;;;;0.10;0.10;;;11.70;99.90;;;;;;5075834;28;20058;-78
2022/05/14 02:14:57;;;;;;;0.00;0.00;;;11.70;99.90;;;;;;5075624;28;20052;-78
2022/05/14 02:17:23;;;;;;;0.10;0.10;;;11.70;99.90;;;;;;5075779;28;20055;-78
2022/05/14 02:19:49;;;;;;;0.00;0.00;;;11.70;99.90;;;;;;5092838;28;20484;-78
2022/05/14 02:22:16;;;;;;;0.00;0.00;;;11.70;99.90;;;;;;5092495;28;20130;-78
2022/05/14 02:24:41;;;;;;;0.00;0.00;;;11.70;99.90;;;;;;5092568;28;20479;-78
2022/05/14 02:27:07;;;;;;;0.00;0.00;;;11.70;99.90;;;;;;5092565;28;20047;-78
2022/05/14 02:29:50;;;;;;;0.00;0.00;;;11.60;99.90;;;;;;5092346;28;20046;-78
2022/05/14 02:32:21;;;;;;;0.00;0.00;;;11.60;99.90;;;;;;5093998;28;20119;-78
2022/05/14 02:34:47;;;;;;;0.00;0.00;;;11.60;99.90;;;;;;5096262;28;20085;-78
2022/05/14 02:37:14;;;;;;;0.10;0.10;;;11.50;99.90;;;;;;5079354;28;20473;-78
2022/05/14 02:39:40;;;;;;;0.10;0.10;;;11.50;99.90;;;;;;5096494;28;20087;-78
2022/05/14 02:42:06;;;;;;;0.00;0.00;;;11.50;99.90;;;;;;5095961;28;20072;-78
2022/05/14 02:44:31;;;;;;;0.00;0.00;;;11.50;99.90;;;;;;5096060;28;20097;-78
2022/05/14 02:46:57;;;;;;;0.03;0.03;;;11.50;99.90;;;;;;5096307;28;20040;-78
2022/05/14 02:49:23;;;;;;;0.00;0.00;;;11.50;99.90;;;;;;5078817;28;20060;-78
2022/05/14 02:51:48;;;;;;;0.00;0.00;;;11.50;99.90;;;;;;5079127;28;20498;-78
2022/05/14 02:54:14;;;;;;;0.00;0.00;;;11.50;99.90;;;;;;5096274;28;20058;-78
2022/05/14 02:56:39;;;;;;;0.00;0.00;;;11.50;99.90;;;;;;5078637;28;20564;-78
2022/05/14 02:59:08;;;;;;;0.00;0.00;;;11.40;99.90;;;;;;5078892;28;20109;-78
2022/05/14 03:01:35;;;;;;;0.52;0.10;;;11.40;99.90;;;;;;5078684;28;20052;-78
2022/05/14 03:04:02;;;;;;;0.00;0.00;;;11.40;99.90;;;;;;5079596;28;20399;-78
2022/05/14 03:06:28;;;;;;;0.08;0.03;;;11.40;99.90;;;;;;5078898;28;20130;-78
2022/05/14 03:08:54;;;;;;;0.00;0.00;;;11.40;99.90;;;;;;5078944;28;20044;-78
2022/05/14 03:11:20;;;;;;;0.00;0.00;;;11.30;99.90;;;;;;5094718;28;20051;-78
2022/05/14 03:13:46;;;;;;;0.00;0.00;;;11.30;99.90;;;;;;5076978;28;20062;-78
2022/05/14 03:16:12;;;;;;;0.00;0.00;;;11.20;99.90;;;;;;5075630;28;20056;-78
2022/05/14 03:18:38;;;;;;;0.20;0.20;;;11.10;99.90;;;;;;5095475;28;20372;-78
2022/05/14 03:21:04;;;;;;;0.10;0.00;;;11.10;99.90;;;;;;5095345;28;20048;-78
2022/05/14 03:23:30;;;;;;;0.00;0.00;;;11.10;99.90;;;;;;5095366;28;20044;-78
2022/05/14 03:25:56;;;;;;;0.00;0.00;;;11.00;99.90;;;;;;5095361;28;20052;-79
2022/05/14 03:28:21;;;;;;;0.00;0.00;;;10.90;99.90;;;;;;5078705;28;20052;-78
2022/05/14 03:30:47;;;;;;;0.00;0.00;;;10.90;99.90;;;;;;5094969;28;20047;-78
2022/05/14 03:33:13;;;;;;;0.00;0.00;;;10.90;99.90;;;;;;5095350;28;20048;-78
2022/05/14 03:35:39;;;;;;;0.00;0.00;;;10.80;99.90;;;;;;5093983;28;20055;-78
2022/05/14 03:38:05;;;;;;;0.03;0.00;;;10.80;99.90;;;;;;5095135;28;20086;-78
2022/05/14 03:40:31;;;;;;;0.22;0.22;;;10.80;99.90;;;;;;5094867;28;20106;-78
2022/05/14 03:42:57;;;;;;;0.00;0.00;;;10.70;99.90;;;;;;5095097;28;20044;-78
2022/05/14 03:45:23;;;;;;;0.40;0.13;;;10.70;99.90;;;;;;5077961;28;20052;-78
2022/05/14 03:47:48;;;;;;;2.20;0.28;;;10.60;99.90;;;;;;5094981;28;20144;-78
2022/05/14 03:50:14;;;;;;;0.57;0.57;;;10.50;99.90;;;;;;5094767;28;20032;-78
2022/05/14 03:52:40;;;;;;;0.00;0.00;;;10.60;99.90;;;;;;5078024;28;20389;-78
2022/05/14 03:55:06;;;;;;;0.00;0.00;;;10.50;99.90;;;;;;5077911;28;20044;-78
2022/05/14 03:57:32;;;;;;;1.42;0.52;;;10.50;99.90;;;;;;5094836;28;20099;-78
2022/05/14 03:59:58;;;;;;;0.10;0.10;;;10.40;99.90;;;;;;5094733;28;20040;-78
2022/05/14 04:02:24;;;;;;;0.00;0.00;;;10.40;99.90;;;;;;5094861;28;20044;-78
2022/05/14 04:04:50;;;;;;;0.00;0.00;;;10.40;99.90;;;;;;5095349;28;20048;-78
2022/05/14 04:07:16;;;;;;;0.10;0.10;;;10.40;99.90;;;;;;5094450;28;20048;-78
2022/05/14 04:09:41;;;;;;;0.10;0.00;;;10.40;99.90;;;;;;5077605;28;20044;-78
2022/05/14 04:12:08;;;;;;;0.10;0.10;;;10.40;99.90;;;;;;5094635;28;20040;-78
2022/05/14 04:14:34;;;;;;;0.00;0.00;;;10.40;99.90;;;;;;5093701;28;20048;-79
2022/05/14 04:17:00;;;;;;;0.00;0.00;;;10.40;99.90;;;;;;5094543;28;20060;-79
2022/05/14 04:19:26;;;;;;;0.00;0.00;;;10.40;99.90;;;;;;5094182;28;20097;-78
2022/05/14 04:21:52;;;;;;;0.08;0.05;;;10.40;99.90;;;;;;5077781;28;20051;-79
2022/05/14 04:24:17;;;;;;;2.40;0.43;;;10.40;99.90;;;;;;5094532;28;20564;-78
2022/05/14 04:26:43;;;;;;;0.00;0.00;;;10.40;99.90;;;;;;5094145;28;20090;-79
2022/05/14 04:29:09;;;;;;;1.10;0.00;;;10.40;99.90;;;;;;5094000;28;20071;-78
2022/05/14 04:31:35;;;;;;;0.00;0.00;;;10.50;99.90;;;;;;5094433;28;20476;-79
2022/05/14 04:34:01;;;;;;;0.00;0.00;;;10.40;99.90;;;;;;5094004;28;20044;-78
2022/05/14 04:36:27;;;;;;;0.00;0.00;;;10.50;99.90;;;;;;5093995;28;20373;-78
2022/05/14 04:38:53;;;;;;;0.10;0.00;;;10.50;99.90;;;;;;5094303;28;20096;-78
2022/05/14 04:41:18;;;;;;;0.00;0.00;;;10.50;99.90;;;;;;5094177;28;20398;-78
2022/05/14 04:43:44;;;;;;;0.00;0.00;;;10.60;99.90;;;;;;5093048;28;20059;-78
2022/05/14 04:46:10;;;;;;;5.15;0.90;;;10.60;99.90;;;;;;5094447;28;20472;-78
2022/05/14 04:48:37;;;;;;;0.10;0.10;;;10.60;99.90;;;;;;5093676;28;20036;-78
2022/05/14 04:51:03;;;;;;;0.00;0.00;;;10.60;99.90;;;;;;5093195;28;20040;-79
2022/05/14 04:53:29;;;;;;;5.05;0.50;;;10.60;99.90;;;;;;5076880;28;20067;-78
2022/05/14 04:55:55;;;;;;;0.00;0.00;;;10.70;99.90;;;;;;5093510;28;20047;-78
2022/05/14 04:58:21;;;;;;;0.00;0.00;;;10.70;99.90;;;;;;5093877;28;20582;-78
2022/05/14 05:00:47;;;;;;;4.10;0.43;;;10.70;99.90;;;;;;5093360;28;20373;-78
2022/05/14 05:03:22;;;;;;;0.00;0.00;;;10.80;99.90;;;;;;5093600;28;20047;-78
2022/05/14 05:06:14;;;;;;;0.00;0.00;;;10.80;99.90;;;;;;5093572;28;20048;-78
2022/05/14 05:08:40;;;;;;;0.00;0.00;;;10.90;99.90;;;;;;5092207;28;20056;-78
2022/05/14 05:11:06;;;;;;;4.03;0.75;;;10.90;99.90;;;;;;5076419;28;20126;-78
2022/05/14 05:13:32;;;;;;;0.00;0.00;;;11.00;99.90;;;;;;5094014;28;20189;-78
2022/05/14 05:15:59;;;;;;;0.00;0.00;;;11.00;99.90;;;;;;5076031;28;20056;-78
2022/05/14 05:18:25;;;;;;;0.03;0.03;;;11.10;99.90;;;;;;5076280;28;20480;-78
2022/05/14 05:20:52;;;;;;;0.00;0.00;;;11.10;99.90;;;;;;5093352;28;20043;-78
2022/05/14 05:23:21;;;;;;;0.00;0.00;;;11.10;99.90;;;;;;5092989;28;20052;-78
2022/05/14 05:25:48;;;;;;;0.10;0.10;;;11.20;99.90;;;;;;5093101;28;20043;-79
2022/05/14 05:28:13;;;;;;;0.20;0.20;;;11.20;99.90;;;;;;5076439;28;20044;-78
2022/05/14 05:30:39;;;;;;;0.13;0.13;;;11.30;99.90;;;;;;5092958;28;20062;-78
2022/05/14 05:33:16;;;;;;;0.00;0.00;;;11.30;99.90;;;;;;5076609;28;20043;-78
2022/05/14 05:35:42;;;;;;;0.28;0.20;;;11.40;99.90;;;;;;5093338;28;20373;-78
2022/05/14 05:38:07;;;;;;;0.00;0.00;;;11.40;99.90;;;;;;5092718;28;20587;-78
2022/05/14 05:40:34;;;;;;;0.50;0.47;;;11.50;99.90;;;;;;5093188;28;20130;-78
2022/05/14 05:43:00;;;;;;;0.00;0.00;;;11.60;99.90;;;;;;5076121;28;20146;-78
2022/05/14 05:45:25;;;;;;;0.05;0.05;;;11.70;99.90;;;;;;5093104;28;20044;-78
2022/05/14 05:47:51;;;;;;;0.52;0.45;;;11.80;99.90;;;;;;5092616;28;20055;-78
2022/05/14 05:50:17;;;;;;;0.00;0.00;;;11.80;99.90;;;;;;5092496;28;20051;-78
2022/05/14 05:52:43;;;;;;;0.10;0.00;;;11.90;99.90;;;;;;5092414;28;20396;-78
2022/05/14 05:57:54;;;;;;;0.75;0.50;;;12.00;99.90;;;;;;5093170;28;20048;-78
2022/05/14 06:00:23;;;;;;;0.47;0.47;;;12.10;99.90;;;;;;5092724;28;20161;-78
2022/05/14 06:02:49;;;;;;;0.00;0.00;;;12.20;99.90;;;;;;5075887;28;20105;-78
2022/05/14 06:05:16;;;;;;;0.00;0.00;;;12.30;99.90;;;;;;5093174;28;20120;-78
2022/05/14 06:07:42;;;;;;;0.08;0.05;;;12.30;99.90;;;;;;5078264;28;20083;-78
2022/05/14 06:10:11;;;;;;;0.20;0.13;;;12.40;99.90;;;;;;5079523;28;20051;-78
2022/05/14 06:12:38;;;;;;;0.05;0.00;;;12.50;99.90;;;;;;5096628;28;20118;-78
2022/05/14 06:15:09;;;;;;;0.00;0.00;;;12.60;99.90;;;;;;5096516;28;20506;-78
2022/05/14 06:17:35;;;;;;;0.35;0.32;;;12.60;99.90;;;;;;5096403;28;20063;-78
2022/05/14 06:20:03;;;;;;;0.60;0.20;;;12.60;99.90;;;;;;5097187;28;20048;-78
2022/05/14 06:22:28;;;;;;;0.68;0.10;;;12.60;99.90;;;;;;5079788;28;20066;-78
2022/05/14 06:24:54;;;;;;;0.22;0.22;;;12.60;99.90;;;;;;5079508;28;20543;-78
2022/05/14 06:27:20;;;;;;;0.55;0.43;;;12.60;99.90;;;;;;5096364;28;20048;-77
2022/05/14 06:29:46;;;;;;;1.25;0.38;;;12.60;99.90;;;;;;5096491;28;20040;-82
2022/05/14 06:32:11;;;;;;;0.22;0.22;;;12.70;99.90;;;;;;5096160;28;20114;-78
2022/05/14 06:34:37;;;;;;;0.00;0.00;;;12.80;99.90;;;;;;5096463;28;20040;-78
2022/05/14 06:37:03;;;;;;;0.32;0.32;;;12.90;99.90;;;;;;5079275;28;20067;-78
2022/05/14 06:39:29;;;;;;;0.25;0.25;;;12.90;99.90;;;;;;5096638;28;20048;-78
2022/05/14 06:41:57;;;;;;;0.00;0.00;;;13.10;99.90;;;;;;5079141;28;20136;-78
2022/05/14 06:44:22;;;;;;;0.00;0.00;;;13.00;99.90;;;;;;5079227;28;20048;-78
2022/05/14 06:46:48;;;;;;;2.67;1.08;;;13.20;99.90;;;;;;5095718;28;20480;-78
2022/05/14 06:49:13;;;;;;;0.00;0.00;;;13.30;99.90;;;;;;5078719;28;20048;-78
2022/05/14 06:51:40;;;;;;;0.00;0.00;;;13.50;99.90;;;;;;5096003;28;20105;-78
2022/05/14 06:54:08;;;;;;;0.30;0.30;;;13.70;99.90;;;;;;5096020;28;20044;-78
2022/05/14 06:56:38;;;;;;;0.08;0.08;;;13.80;99.90;;;;;;5096449;28;20040;-79
2022/05/14 06:59:04;;;;;;;0.00;0.00;;;13.90;99.90;;;;;;5095585;28;20438;-79
2022/05/14 07:01:30;;;;;;;0.15;0.10;;;14.10;99.90;;;;;;5095779;28;20090;-78
2022/05/14 07:06:48;;;;;;;0.40;0.10;;;14.30;99.90;;;;;;5095277;28;20062;-78
2022/05/14 07:09:18;;;;;;;0.30;0.30;;;14.50;99.90;;;;;;5095606;28;20136;-78
2022/05/14 07:11:46;;;;;;;0.32;0.20;;;14.70;99.90;;;;;;5078642;28;20055;-78
2022/05/14 07:14:13;;;;;;;0.03;0.00;;;14.80;99.90;;;;;;5096175;28;20052;-78
2022/05/14 07:16:40;;;;;;;10.05;1.17;;;14.90;99.90;;;;;;5078294;28;20056;-78
2022/05/14 07:19:06;;;;;;;0.45;0.45;;;15.20;99.90;;;;;;5078215;28;20489;-78
2022/05/14 07:21:38;;;;;;;0.20;0.20;;;15.30;99.90;;;;;;5095421;28;20048;-78
2022/05/14 07:24:07;;;;;;;0.00;0.00;;;15.50;99.90;;;;;;5078414;28;20078;-78
2022/05/14 07:26:34;;;;;;;0.20;0.20;;;15.70;99.90;;;;;;5095914;28;20047;-78
2022/05/14 07:29:00;;;;;;;0.68;0.43;;;15.90;99.90;;;;;;5078527;28;20414;-78
2022/05/14 07:31:26;;;;;;;1.13;0.68;;;16.10;99.90;;;;;;5095532;28;20066;-78
2022/05/14 07:33:52;;;;;;;0.00;0.00;;;16.20;99.90;;;;;;5078143;28;20487;-78
2022/05/14 07:36:21;;;;;;;0.28;0.28;;;16.40;99.90;;;;;;5095132;28;20048;-78
2022/05/14 07:38:48;;;;;;;0.60;0.28;;;16.50;99.90;;;;;;5095148;28;20414;-78
2022/05/14 07:41:15;;;;;;;0.00;0.00;;;16.60;99.90;;;;;;5094927;28;20052;-78
2022/05/14 07:43:44;;;;;;;2.65;0.90;;;16.80;99.90;;;;;;5095636;28;20127;-78
2022/05/14 07:46:15;;;;;;;0.50;0.17;;;16.90;99.90;;;;;;5094862;28;20136;-78
2022/05/14 07:48:41;;;;;;;0.10;0.05;;;17.00;99.90;;;;;;5095095;28;20050;-79
2022/05/14 07:51:10;;;;;;;4.05;0.75;;;17.10;99.60;;;;;;5094464;28;20036;-79
2022/05/14 07:53:36;;;;;;;0.47;0.00;;;17.20;98.20;;;;;;5078096;28;20071;-79
2022/05/14 07:56:04;;;;;;;0.00;0.00;;;17.20;99.40;;;;;;5094156;28;20158;-79
2022/05/14 07:58:30;;;;;;;0.70;0.38;;;17.40;97.80;;;;;;5077663;28;20044;-79
2022/05/14 08:00:56;;;;;;;0.10;0.10;;;17.40;97.10;;;;;;5078258;28;20097;-79
2022/05/14 08:03:24;;;;;;;0.05;0.05;;;17.40;96.80;;;;;;5094908;28;20486;-79
2022/05/14 08:05:59;;;;;;;1.27;0.28;;;17.50;97.20;;;;;;5094534;28;20130;-79
2022/05/14 08:08:25;;;;;;;0.05;0.05;;;17.60;98.00;;;;;;5078042;28;20138;-79
2022/05/14 08:10:52;;;;;;;0.13;0.13;;;17.70;97.30;;;;;;5094236;28;20048;-79
2022/05/14 08:13:19;;;;;;;1.75;0.43;;;17.80;97.10;;;;;;5094410;28;20039;-79
2022/05/14 08:15:47;;;;;;;0.82;0.80;;;17.90;97.30;;;;;;5094028;28;20048;-79
2022/05/14 08:18:13;;;;;;;0.30;0.30;;;17.90;95.90;;;;;;5094194;28;20130;-79
2022/05/14 08:20:40;;;;;;;0.65;0.22;;;18.00;95.80;;;;;;5077937;28;20147;-79
2022/05/14 08:25:52;;;;;;;0.43;0.22;;;18.20;97.00;;;;;;5097098;28;20077;-81
2022/05/14 08:28:19;;;;;;;0.52;0.30;;;18.40;95.00;;;;;;5112890;28;20456;-79
2022/05/14 08:30:45;;;;;;;0.00;0.00;;;18.30;94.20;;;;;;5111309;28;20515;-79
2022/05/14 08:33:11;;;;;;;1.55;0.40;;;18.30;93.70;;;;;;5095846;28;20115;-79
2022/05/14 08:35:38;;;;;;;0.00;0.00;;;18.30;94.90;;;;;;5112411;28;20812;-78
2022/05/14 08:38:04;;;;;;;0.88;0.75;;;18.50;94.90;;;;;;5112564;28;20400;-81
2022/05/14 08:40:37;;;;;;;0.00;0.00;;;18.70;95.10;;;;;;5096854;28;20090;-81
2022/05/14 08:43:08;;;;;;;0.00;0.00;;;18.80;94.00;;;;;;5095178;28;20521;-79
2022/05/14 08:45:37;;;;;;;0.20;0.20;;;19.00;94.50;;;;;;5095500;28;20039;-79
2022/05/14 08:48:15;;;;;;;0.00;0.00;;;19.10;94.00;;;;;;5112654;28;20055;-78
2022/05/14 08:50:44;;;;;;;0.10;0.08;;;19.30;93.10;;;;;;5112214;28;20057;-78
2022/05/14 08:53:13;;;;;;;0.13;0.13;;;19.30;92.80;;;;;;5109939;28;20043;-81
2022/05/14 08:55:58;;;;;;;0.13;0.13;;;19.20;92.90;;;;;;5096298;28;20048;-80
2022/05/14 08:58:39;;;;;;;0.00;0.00;;;19.20;91.90;;;;;;5111694;28;20043;-79
2022/05/14 09:01:06;;;;;;;0.25;0.25;;;19.10;92.20;;;;;;5114544;28;20052;-80
2022/05/14 09:03:32;;;;;;;0.00;0.00;;;19.30;91.70;;;;;;5096848;28;20059;-78
2022/05/14 09:05:59;;;;;;;0.10;0.08;;;19.50;92.10;;;;;;5097218;28;20100;-80
2022/05/14 09:08:25;;;;;;;0.57;0.57;;;19.50;91.10;;;;;;5112906;28;20491;-78
2022/05/14 09:11:02;;;;;;;0.10;0.10;;;19.50;91.30;;;;;;5096417;28;20059;-78
2022/05/14 09:13:34;;;;;;;0.98;0.45;;;19.60;90.50;;;;;;5114284;28;20130;-77
2022/05/14 09:16:03;;;;;;;0.00;0.00;;;19.80;91.10;;;;;;5096366;28;20056;-78
2022/05/14 09:18:42;;;;;;;1.17;0.52;;;20.00;90.20;;;;;;5113803;28;20065;-77
2022/05/14 09:21:18;;;;;;;0.00;0.00;;;20.00;90.10;;;;;;5113801;28;20130;-77
2022/05/14 09:23:48;;;;;;;0.40;0.25;;;20.10;89.70;;;;;;5097194;28;20060;-78
2022/05/14 09:26:18;;;;;;;0.32;0.32;;;20.20;90.10;;;;;;5113772;28;20518;-78
2022/05/14 09:28:51;;;;;;;0.00;0.00;;;20.30;90.00;;;;;;5113499;28;20047;-77
2022/05/14 09:31:32;;;;;;;1.45;0.80;;;20.40;88.20;;;;;;5113210;28;20047;-77
2022/05/14 09:34:03;;;;;;;0.32;0.32;;;20.50;87.00;;;;;;5114062;28;20047;-77
2022/05/14 09:36:30;;;;;;;0.10;0.08;;;20.60;88.40;;;;;;5113347;28;20048;-77
2022/05/14 09:39:22;;;;;;;0.00;0.00;;;20.80;87.70;;;;;;5096727;28;20078;-77
2022/05/14 09:41:57;;;;;;;0.10;0.10;;;20.60;86.10;;;;;;5111443;28;20048;-78
2022/05/14 09:44:26;;;;;;;1.15;0.43;;;20.30;84.50;;;;;;5113931;28;20046;-77
2022/05/14 09:47:04;;;;;;;0.10;0.10;;;20.20;84.50;;;;;;5096431;28;20415;-77
2022/05/14 09:49:31;;;;;;;0.00;0.00;;;20.10;86.30;;;;;;5113068;28;20044;-77
2022/05/14 09:52:04;;;;;;;0.10;0.10;;;20.20;85.30;;;;;;5113127;28;20494;-77
2022/05/14 09:54:30;;;;;;;1.20;0.30;;;20.40;85.50;;;;;;5096444;28;20445;-77
2022/05/14 09:57:20;;;;;;;0.10;0.10;;;20.30;85.10;;;;;;5096259;28;20040;-77
2022/05/14 10:00:05;;;;;;;0.00;0.00;;;20.40;85.60;;;;;;5113097;28;20050;-77
2022/05/14 10:02:50;;;;;;;;;;;20.50;84.90;;;;;;5096496;28;20059;-77
2022/05/14 10:05:44;;;;;;;2.45;0.63;;;20.50;83.80;;;;;;5113438;28;19981;-77
2022/05/14 10:08:34;;;;;;;0.05;0.03;;;20.70;83.10;;;;;;5113518;28;20047;-77
2022/05/14 10:11:15;;;;;;;0.17;0.17;;;21.10;86.20;;;;;;5095918;28;20089;-77
2022/05/14 10:14:13;;;;;;;0.00;0.00;;;21.60;85.30;;;;;;5096558;28;20135;-77
2022/05/14 10:16:55;;;;;;;0.38;0.20;;;22.00;85.10;;;;;;5112689;28;20051;-77
2022/05/14 10:20:09;;;;;;;0.10;0.10;;;22.30;81.10;;;;;;5113148;28;20135;-77
2022/05/14 10:29:17;;;;;;;0.00;0.00;;;22.20;77.90;;;;;;4994901;28;20061;-76
2022/05/14 10:31:53;;;;;;;0.00;0.00;;;21.90;79.10;;;;;;4991994;28;20116;-77
2022/05/14 10:34:28;;;;;;;3.83;1.02;;;21.50;80.00;;;;;;5011902;28;20058;-76
2022/05/14 10:36:59;;;;;;;0.20;0.20;;;21.10;76.80;;;;;;4995452;28;20050;-76
2022/05/14 10:39:41;;;;;;;0.00;0.00;;;21.10;78.60;;;;;;4995436;28;20137;-77
2022/05/14 10:42:37;;;;;;;0.08;0.00;;;21.40;80.50;;;;;;4995131;28;20626;-77
2022/05/14 10:45:07;;;;;;;0.10;0.10;;;21.40;78.70;;;;;;4995453;28;20057;-77
2022/05/14 10:47:33;;;;;;;0.57;0.57;;;21.30;76.00;;;;;;4995138;28;20049;-77
2022/05/14 10:50:06;;;;;;;1.48;0.63;;;21.30;76.40;;;;;;4995002;28;20050;-77
2022/05/14 10:52:32;;;;;;;0.10;0.10;;;21.20;76.60;;;;;;5011835;28;20413;-77
2022/05/14 10:54:58;;;;;;;11.95;1.35;;;21.50;79.20;;;;;;4982427;28;20137;-77
2022/05/14 10:57:31;;;;;;;0.30;0.20;;;21.40;76.00;;;;;;4998470;28;20128;-76
2022/05/14 11:00:10;;;;;;;0.10;0.10;;;21.20;76.00;;;;;;5051532;28;20052;-76
2022/05/14 11:02:49;;;;;;;0.03;0.00;;;20.90;76.00;;;;;;5075024;28;20404;-77
2022/05/14 11:05:26;;;;;;;0.00;0.00;;;20.60;77.80;;;;;;5088639;28;20094;-77
2022/05/14 11:07:52;;;;;;;0.20;0.20;;;20.40;77.40;;;;;;5116791;28;20372;-77
2022/05/14 11:10:27;;;;;;;0.00;0.00;;;20.30;79.00;;;;;;5115421;28;20057;-77
2022/05/14 11:12:54;;;;;;;0.63;0.30;;;20.30;79.50;;;;;;5116324;28;20047;-77
2022/05/14 11:15:26;;;;;;;0.30;0.30;;;20.60;80.80;;;;;;5115527;28;20101;-76
2022/05/14 11:18:14;;;;;;;0.43;0.22;;;21.20;80.50;;;;;;5115826;28;20046;-76
2022/05/14 11:21:03;;;;;;;0.03;0.03;;;21.70;78.70;;;;;;5115979;28;20092;-76
2022/05/14 11:23:29;;;;;;;0.25;0.20;;;21.80;76.60;;;;;;5115779;28;20126;-76
2022/05/14 11:26:12;;;;;;;0.08;0.08;;;21.70;74.80;;;;;;5098733;28;20138;-76
2022/05/14 11:28:38;;;;;;;2.85;1.13;;;21.90;76.40;;;;;;5115936;28;20043;-76
2022/05/14 11:31:18;;;;;;;0.95;0.38;;;22.30;76.40;;;;;;5098530;28;20502;-76
2022/05/14 11:33:46;;;;;;;0.05;0.00;;;22.70;77.30;;;;;;5115572;28;20036;-77
2022/05/14 11:36:11;;;;;;;0.03;0.03;;;22.80;74.60;;;;;;5115475;28;20050;-76
2022/05/14 11:38:40;;;;;;;0.10;0.10;;;23.00;74.20;;;;;;5115574;28;20044;-77
2022/05/14 11:41:12;;;;;;;0.00;0.00;;;23.20;73.00;;;;;;5115362;28;20137;-77
2022/05/14 11:43:46;;;;;;;0.00;0.00;;;23.20;71.70;;;;;;5114810;28;20059;-77
2022/05/14 11:46:29;;;;;;;0.65;0.30;;;23.50;70.90;;;;;;5098609;28;20069;-77
2022/05/14 11:49:13;;;;;;;0.00;0.00;;;23.70;70.20;;;;;;5098093;28;20065;-76
2022/05/14 11:52:04;;;;;;;0.00;0.00;;;23.50;68.50;;;;;;5098438;28;20484;-77
2022/05/14 11:54:36;;;;;;;0.00;0.00;;;23.00;69.90;;;;;;5098195;28;20495;-77
2022/05/14 11:57:24;;;;;;;0.00;0.00;;;22.50;68.40;;;;;;5098255;28;20054;-77
2022/05/14 11:59:59;;;;;;;0.10;0.10;;;22.10;69.90;;;;;;5114968;28;20112;-77
2022/05/14 12:02:40;;;;;;;0.00;0.00;;;21.90;71.00;;;;;;5098129;28;20043;-77
2022/05/14 12:05:12;;;;;;;0.20;0.20;;;21.70;70.90;;;;;;5113643;28;20512;-77
2022/05/14 12:07:56;;;;;;;0.10;0.10;;;21.40;71.20;;;;;;5114993;28;20559;-78
2022/05/14 12:11:04;;;;;;;0.10;0.10;;;21.20;70.30;;;;;;5115275;28;20503;-77
2022/05/14 12:13:34;;;;;;;0.00;0.00;;;21.60;73.20;;;;;;5040254;28;20474;-77
2022/05/14 12:16:00;;;;;;;1.00;0.30;;;22.00;71.40;;;;;;5039561;28;20060;-77
2022/05/14 12:18:27;;;;;;;1.13;0.38;;;22.30;71.60;;;;;;5039696;28;20076;-77
2022/05/14 12:21:03;;;;;;;0.00;0.00;;;22.60;70.40;;;;;;5039422;28;20078;-78
2022/05/14 12:23:37;;;;;;;0.00;0.00;;;22.60;68.00;;;;;;5039570;28;20550;-78
2022/05/14 12:26:06;;;;;;;0.10;0.10;;;22.40;67.50;;;;;;5039641;28;20106;-77
2022/05/14 12:28:35;;;;;;;1.27;0.75;;;22.10;68.20;;;;;;5056578;28;20070;-77
2022/05/14 12:34:00;;;;;;;0.63;0.38;;;21.80;67.80;;;;;;5056352;28;20048;-78
2022/05/14 12:36:32;;;;;;;13.80;1.02;;;21.70;69.70;;;;;;5056242;28;20048;-78
2022/05/14 12:38:59;;;;;;;0.00;0.00;;;21.80;71.00;;;;;;5055965;28;20369;-78
2022/05/14 12:41:39;;;;;;;0.00;0.00;;;21.90;69.80;;;;;;5055966;28;20056;-77
2022/05/14 12:44:09;;;;;;;15.13;0.80;;;21.90;69.50;;;;;;5056262;28;20049;-78
2022/05/14 12:46:56;;;;;;;0.10;0.00;;;21.70;69.10;;;;;;5064744;28;20055;-77
2022/05/14 12:49:25;;;;;;;1.85;0.65;;;21.70;70.40;;;;;;5114273;28;20088;-77
2022/05/14 12:51:54;;;;;;;1.02;0.38;;;21.60;68.40;;;;;;5114221;28;20047;-77
2022/05/14 12:54:31;;;;;;;0.43;0.15;;;21.40;68.30;;;;;;5114101;28;20051;-77
2022/05/14 12:57:03;;;;;;;0.32;0.00;;;21.30;68.50;;;;;;5097068;28;20487;-77
2022/05/14 12:59:28;;;;;;;0.00;0.00;;;21.20;68.80;;;;;;5114109;28;20499;-77
2022/05/14 13:02:02;;;;;;;0.00;0.00;;;21.20;68.60;;;;;;5113595;28;20054;-77
2022/05/14 13:04:44;;;;;;;0.03;0.03;;;21.20;70.90;;;;;;5097104;28;20047;-77
2022/05/14 13:07:11;;;;;;;0.13;0.08;;;21.10;70.40;;;;;;5096642;28;20109;-77
2022/05/14 13:09:40;;;;;;;0.32;0.32;;;21.10;68.70;;;;;;5113585;28;20487;-77
2022/05/14 13:12:06;;;;;;;4.00;0.63;;;21.10;70.40;;;;;;5113586;28;20055;-77
2022/05/14 13:14:35;;;;;;;0.20;0.17;;;21.10;70.80;;;;;;5096554;28;20507;-76
2022/05/14 13:17:10;;;;;;;0.10;0.10;;;21.20;68.70;;;;;;5113141;28;20051;-77
2022/05/14 13:19:39;;;;;;;0.00;0.00;;;21.20;72.00;;;;;;5113398;28;20411;-77
2022/05/14 13:22:13;;;;;;;0.17;0.17;;;21.30;70.90;;;;;;5113736;28;20479;-77
2022/05/14 13:24:49;;;;;;;0.03;0.00;;;21.30;69.30;;;;;;5112823;28;20056;-77